sensor_id;sensor_type;location;lat;lon;timestamp;temperature;humidity
24560;DHT22;12727;49.934;8.656;2023-03-09T00:00:21;9.60;99.90
24560;DHT22;12727;49.934;8.656;2023-03-09T00:02:48;9.60;99.90
24560;DHT22;12727;49.934;8.656;2023-03-09T00:05:14;9.60;99.90
24560;DHT22;12727;49.934;8.656;2023-03-09T00:07:42;9.60;99.90
24560;DHT22;12727;49.934;8.656;2023-03-09T00:10:10;9.60;99.90
24560;DHT22;12727;49.934;8.656;2023-03-09T00:12:35;9.60;99.90
24560;DHT22;12727;49.934;8.656;2023-03-09T00:15:01;9.60;99.90
24560;DHT22;12727;49.934;8.656;2023-03-09T00:17:27;9.50;99.90
24560;DHT22;12727;49.934;8.656;2023-03-09T00:19:52;9.50;99.90
24560;DHT22;12727;49.934;8.656;2023-03-09T00:22:26;9.60;99.90
24560;DHT22;12727;49.934;8.656;2023-03-09T00:24:53;9.60;99.90
24560;DHT22;12727;49.934;8.656;2023-03-09T00:27:20;9.60;99.90
24560;DHT22;12727;49.934;8.656;2023-03-09T00:29:45;9.60;99.90
24560;DHT22;12727;49.934;8.656;2023-03-09T00:32:11;9.60;99.90
24560;DHT22;12727;49.934;8.656;2023-03-09T00:34:36;9.60;99.90
24560;DHT22;12727;49.934;8.656;2023-03-09T00:37:02;9.50;99.90
24560;DHT22;12727;49.934;8.656;2023-03-09T00:39:28;9.50;99.90
24560;DHT22;12727;49.934;8.656;2023-03-09T00:41:53;9.50;99.90
24560;DHT22;12727;49.934;8.656;2023-03-09T00:44:19;9.50;99.90
24560;DHT22;12727;49.934;8.656;2023-03-09T00:46:44;9.50;99.90
24560;DHT22;12727;49.934;8.656;2023-03-09T00:49:12;9.50;99.90
24560;DHT22;12727;49.934;8.656;2023-03-09T00:51:38;9.40;99.90
24560;DHT22;12727;49.934;8.656;2023-03-09T00:54:04;9.40;99.90
24560;DHT22;12727;49.934;8.656;2023-03-09T00:56:30;9.30;99.90
24560;DHT22;12727;49.934;8.656;2023-03-09T00:58:57;9.30;99.90
24560;DHT22;12727;49.934;8.656;2023-03-09T01:01:24;9.30;99.90
24560;DHT22;12727;49.934;8.656;2023-03-09T01:03:50;9.30;99.90
24560;DHT22;12727;49.934;8.656;2023-03-09T01:06:16;9.30;99.90
24560;DHT22;12727;49.934;8.656;2023-03-09T01:08:42;9.20;99.90
24560;DHT22;12727;49.934;8.656;2023-03-09T01:11:10;9.20;99.90
24560;DHT22;12727;49.934;8.656;2023-03-09T01:13:36;9.20;99.90
24560;DHT22;12727;49.934;8.656;2023-03-09T01:16:01;9.10;99.90
24560;DHT22;12727;49.934;8.656;2023-03-09T01:18:27;9.10;99.90
24560;DHT22;12727;49.934;8.656;2023-03-09T01:20:53;9.10;99.90
24560;DHT22;12727;49.934;8.656;2023-03-09T01:23:19;9.10;99.90
24560;DHT22;12727;49.934;8.656;2023-03-09T01:25:44;9.00;99.90
24560;DHT22;12727;49.934;8.656;2023-03-09T01:28:11;9.00;99.90
24560;DHT22;12727;49.934;8.656;2023-03-09T01:30:37;9.00;99.90
24560;DHT22;12727;49.934;8.656;2023-03-09T01:33:02;9.00;99.90
24560;DHT22;12727;49.934;8.656;2023-03-09T01:35:28;9.00;99.90
24560;DHT22;12727;49.934;8.656;2023-03-09T01:37:54;9.00;99.90
24560;DHT22;12727;49.934;8.656;2023-03-09T01:40:23;8.90;99.90
24560;DHT22;12727;49.934;8.656;2023-03-09T01:43:01;8.90;99.90
24560;DHT22;12727;49.934;8.656;2023-03-09T01:47:53;8.90;99.90
24560;DHT22;12727;49.934;8.656;2023-03-09T01:50:32;9.00;99.90
24560;DHT22;12727;49.934;8.656;2023-03-09T01:53:04;8.90;99.90
24560;DHT22;12727;49.934;8.656;2023-03-09T01:55:38;8.90;99.90
24560;DHT22;12727;49.934;8.656;2023-03-09T01:58:08;8.90;99.90
24560;DHT22;12727;49.934;8.656;2023-03-09T02:00:36;8.90;99.90
24560;DHT22;12727;49.934;8.656;2023-03-09T02:03:15;8.90;99.90
24560;DHT22;12727;49.934;8.656;2023-03-09T02:06:09;8.90;99.90
24560;DHT22;12727;49.934;8.656;2023-03-09T02:08:39;8.90;99.90
24560;DHT22;12727;49.934;8.656;2023-03-09T02:11:09;8.90;99.90
24560;DHT22;12727;49.934;8.656;2023-03-09T02:13:42;8.90;99.90
24560;DHT22;12727;49.934;8.656;2023-03-09T02:16:09;8.80;99.90
24560;DHT22;12727;49.934;8.656;2023-03-09T02:18:35;8.70;99.90
24560;DHT22;12727;49.934;8.656;2023-03-09T02:23:54;8.80;99.90
24560;DHT22;12727;49.934;8.656;2023-03-09T02:29:04;8.70;99.90
24560;DHT22;12727;49.934;8.656;2023-03-09T02:31:29;8.70;99.90
24560;DHT22;12727;49.934;8.656;2023-03-09T02:33:55;8.60;99.90
24560;DHT22;12727;49.934;8.656;2023-03-09T02:36:21;8.50;99.90
24560;DHT22;12727;49.934;8.656;2023-03-09T02:38:47;8.50;99.90
24560;DHT22;12727;49.934;8.656;2023-03-09T02:41:13;8.40;99.90
24560;DHT22;12727;49.934;8.656;2023-03-09T02:43:58;8.50;99.90
24560;DHT22;12727;49.934;8.656;2023-03-09T02:46:24;8.50;99.90
24560;DHT22;12727;49.934;8.656;2023-03-09T02:48:50;8.50;99.90
24560;DHT22;12727;49.934;8.656;2023-03-09T02:51:15;8.60;99.90
24560;DHT22;12727;49.934;8.656;2023-03-09T02:53:41;8.50;99.90
24560;DHT22;12727;49.934;8.656;2023-03-09T02:56:08;8.50;99.90
24560;DHT22;12727;49.934;8.656;2023-03-09T02:58:33;8.50;99.90
24560;DHT22;12727;49.934;8.656;2023-03-09T03:00:59;8.50;99.90
24560;DHT22;12727;49.934;8.656;2023-03-09T03:03:25;8.50;99.90
24560;DHT22;12727;49.934;8.656;2023-03-09T03:05:50;8.50;99.90
24560;DHT22;12727;49.934;8.656;2023-03-09T03:08:16;8.50;99.90
24560;DHT22;12727;49.934;8.656;2023-03-09T03:10:42;8.50;99.90
24560;DHT22;12727;49.934;8.656;2023-03-09T03:13:08;8.50;99.90
24560;DHT22;12727;49.934;8.656;2023-03-09T03:15:33;8.50;99.90
24560;DHT22;12727;49.934;8.656;2023-03-09T03:18:00;8.50;99.90
24560;DHT22;12727;49.934;8.656;2023-03-09T03:20:25;8.50;99.90
24560;DHT22;12727;49.934;8.656;2023-03-09T03:22:52;8.50;99.90
24560;DHT22;12727;49.934;8.656;2023-03-09T03:25:18;8.60;99.90
24560;DHT22;12727;49.934;8.656;2023-03-09T03:27:44;8.60;99.90
24560;DHT22;12727;49.934;8.656;2023-03-09T03:30:10;8.50;99.90
24560;DHT22;12727;49.934;8.656;2023-03-09T03:32:36;8.50;99.90
24560;DHT22;12727;49.934;8.656;2023-03-09T03:35:02;8.50;99.90
24560;DHT22;12727;49.934;8.656;2023-03-09T03:37:27;8.40;99.90
24560;DHT22;12727;49.934;8.656;2023-03-09T03:39:53;8.40;99.90
24560;DHT22;12727;49.934;8.656;2023-03-09T03:42:19;8.50;99.90
24560;DHT22;12727;49.934;8.656;2023-03-09T03:44:44;8.60;99.90
24560;DHT22;12727;49.934;8.656;2023-03-09T03:47:10;8.70;99.90
24560;DHT22;12727;49.934;8.656;2023-03-09T03:49:35;8.60;99.90
24560;DHT22;12727;49.934;8.656;2023-03-09T03:52:01;8.70;99.90
24560;DHT22;12727;49.934;8.656;2023-03-09T03:54:27;8.70;99.90
24560;DHT22;12727;49.934;8.656;2023-03-09T03:56:52;8.70;99.90
24560;DHT22;12727;49.934;8.656;2023-03-09T03:59:18;8.70;99.90
24560;DHT22;12727;49.934;8.656;2023-03-09T04:01:43;8.70;99.90
24560;DHT22;12727;49.934;8.656;2023-03-09T04:04:09;8.70;99.90
24560;DHT22;12727;49.934;8.656;2023-03-09T04:06:35;8.70;99.90
24560;DHT22;12727;49.934;8.656;2023-03-09T04:09:01;8.70;99.90
24560;DHT22;12727;49.934;8.656;2023-03-09T04:11:26;8.70;99.90
24560;DHT22;12727;49.934;8.656;2023-03-09T04:13:52;8.70;99.90
24560;DHT22;12727;49.934;8.656;2023-03-09T04:16:18;8.60;99.90
24560;DHT22;12727;49.934;8.656;2023-03-09T04:18:43;8.60;99.90
24560;DHT22;12727;49.934;8.656;2023-03-09T04:21:09;8.50;99.90
24560;DHT22;12727;49.934;8.656;2023-03-09T04:23:34;8.50;99.90
24560;DHT22;12727;49.934;8.656;2023-03-09T04:26:02;8.60;99.90
24560;DHT22;12727;49.934;8.656;2023-03-09T04:28:28;8.60;99.90
24560;DHT22;12727;49.934;8.656;2023-03-09T04:30:54;8.60;99.90
24560;DHT22;12727;49.934;8.656;2023-03-09T04:33:20;8.70;99.90
24560;DHT22;12727;49.934;8.656;2023-03-09T04:35:46;8.60;99.90
24560;DHT22;12727;49.934;8.656;2023-03-09T04:38:12;8.70;99.90
24560;DHT22;12727;49.934;8.656;2023-03-09T04:40:38;8.70;99.90
24560;DHT22;12727;49.934;8.656;2023-03-09T04:43:04;8.70;99.90
24560;DHT22;12727;49.934;8.656;2023-03-09T04:45:30;8.70;99.90
24560;DHT22;12727;49.934;8.656;2023-03-09T04:47:56;8.70;99.90
24560;DHT22;12727;49.934;8.656;2023-03-09T04:50:22;8.80;99.90
24560;DHT22;12727;49.934;8.656;2023-03-09T04:52:48;8.80;99.90
24560;DHT22;12727;49.934;8.656;2023-03-09T04:55:15;8.80;99.90
24560;DHT22;12727;49.934;8.656;2023-03-09T04:57:40;8.80;99.90
24560;DHT22;12727;49.934;8.656;2023-03-09T05:00:07;8.80;99.90
24560;DHT22;12727;49.934;8.656;2023-03-09T05:02:37;8.80;99.90
24560;DHT22;12727;49.934;8.656;2023-03-09T05:05:03;8.90;99.90
24560;DHT22;12727;49.934;8.656;2023-03-09T05:07:28;8.90;99.90
24560;DHT22;12727;49.934;8.656;2023-03-09T05:09:54;8.90;99.90
24560;DHT22;12727;49.934;8.656;2023-03-09T05:12:19;8.90;99.90
24560;DHT22;12727;49.934;8.656;2023-03-09T05:14:45;8.90;99.90
24560;DHT22;12727;49.934;8.656;2023-03-09T05:17:10;8.80;99.90
24560;DHT22;12727;49.934;8.656;2023-03-09T05:19:36;8.80;99.90
24560;DHT22;12727;49.934;8.656;2023-03-09T05:22:03;8.70;99.90
24560;DHT22;12727;49.934;8.656;2023-03-09T05:24:30;8.80;99.90
24560;DHT22;12727;49.934;8.656;2023-03-09T05:26:55;8.80;99.90
24560;DHT22;12727;49.934;8.656;2023-03-09T05:29:21;8.80;99.90
24560;DHT22;12727;49.934;8.656;2023-03-09T05:31:46;8.90;99.90
24560;DHT22;12727;49.934;8.656;2023-03-09T05:34:12;8.90;99.90
24560;DHT22;12727;49.934;8.656;2023-03-09T05:36:38;8.90;99.90
24560;DHT22;12727;49.934;8.656;2023-03-09T05:39:03;8.80;99.90
24560;DHT22;12727;49.934;8.656;2023-03-09T05:41:30;8.90;99.90
24560;DHT22;12727;49.934;8.656;2023-03-09T05:43:57;8.90;99.90
24560;DHT22;12727;49.934;8.656;2023-03-09T05:46:23;8.80;99.90
24560;DHT22;12727;49.934;8.656;2023-03-09T05:48:49;8.80;99.90
24560;DHT22;12727;49.934;8.656;2023-03-09T05:51:15;8.90;99.90
24560;DHT22;12727;49.934;8.656;2023-03-09T05:53:40;8.90;99.90
24560;DHT22;12727;49.934;8.656;2023-03-09T05:56:07;8.90;99.90
24560;DHT22;12727;49.934;8.656;2023-03-09T05:58:33;8.90;99.90
24560;DHT22;12727;49.934;8.656;2023-03-09T06:00:59;8.90;99.90
24560;DHT22;12727;49.934;8.656;2023-03-09T06:03:25;8.90;99.90
24560;DHT22;12727;49.934;8.656;2023-03-09T06:05:58;8.90;99.90
24560;DHT22;12727;49.934;8.656;2023-03-09T06:08:24;8.80;99.90
24560;DHT22;12727;49.934;8.656;2023-03-09T06:10:50;8.80;99.90
24560;DHT22;12727;49.934;8.656;2023-03-09T06:13:16;8.80;99.90
24560;DHT22;12727;49.934;8.656;2023-03-09T06:15:41;8.80;99.90
24560;DHT22;12727;49.934;8.656;2023-03-09T06:18:07;8.90;99.90
24560;DHT22;12727;49.934;8.656;2023-03-09T06:20:33;8.90;99.90
24560;DHT22;12727;49.934;8.656;2023-03-09T06:22:59;8.90;99.90
24560;DHT22;12727;49.934;8.656;2023-03-09T06:25:24;8.90;99.90
24560;DHT22;12727;49.934;8.656;2023-03-09T06:27:50;8.80;99.90
24560;DHT22;12727;49.934;8.656;2023-03-09T06:30:16;8.80;99.90
24560;DHT22;12727;49.934;8.656;2023-03-09T06:32:41;8.70;99.90
24560;DHT22;12727;49.934;8.656;2023-03-09T06:35:07;8.70;99.90
24560;DHT22;12727;49.934;8.656;2023-03-09T06:37:32;8.70;99.90
24560;DHT22;12727;49.934;8.656;2023-03-09T06:39:58;8.70;99.90
24560;DHT22;12727;49.934;8.656;2023-03-09T06:42:23;8.80;99.90
24560;DHT22;12727;49.934;8.656;2023-03-09T06:44:49;8.80;99.90
24560;DHT22;12727;49.934;8.656;2023-03-09T06:47:15;8.80;99.90
24560;DHT22;12727;49.934;8.656;2023-03-09T06:49:41;8.90;99.90
24560;DHT22;12727;49.934;8.656;2023-03-09T06:52:09;8.90;99.90
24560;DHT22;12727;49.934;8.656;2023-03-09T06:54:34;8.90;99.90
24560;DHT22;12727;49.934;8.656;2023-03-09T06:57:00;8.90;99.90
24560;DHT22;12727;49.934;8.656;2023-03-09T06:59:28;8.90;99.90
24560;DHT22;12727;49.934;8.656;2023-03-09T07:01:54;8.90;99.90
24560;DHT22;12727;49.934;8.656;2023-03-09T07:04:19;8.90;99.90
24560;DHT22;12727;49.934;8.656;2023-03-09T07:06:45;9.00;99.90
24560;DHT22;12727;49.934;8.656;2023-03-09T07:09:10;9.10;99.90
24560;DHT22;12727;49.934;8.656;2023-03-09T07:11:36;9.10;99.90
24560;DHT22;12727;49.934;8.656;2023-03-09T07:14:01;9.20;99.90
24560;DHT22;12727;49.934;8.656;2023-03-09T07:16:27;9.10;99.90
24560;DHT22;12727;49.934;8.656;2023-03-09T07:18:54;9.10;99.90
24560;DHT22;12727;49.934;8.656;2023-03-09T07:21:19;9.10;99.90
24560;DHT22;12727;49.934;8.656;2023-03-09T07:23:45;9.00;99.90
24560;DHT22;12727;49.934;8.656;2023-03-09T07:26:11;8.90;99.90
24560;DHT22;12727;49.934;8.656;2023-03-09T07:28:36;9.00;99.90
24560;DHT22;12727;49.934;8.656;2023-03-09T07:31:10;9.00;99.90
24560;DHT22;12727;49.934;8.656;2023-03-09T07:33:35;9.00;99.90
24560;DHT22;12727;49.934;8.656;2023-03-09T07:36:03;9.00;99.90
24560;DHT22;12727;49.934;8.656;2023-03-09T07:38:28;9.00;99.90
24560;DHT22;12727;49.934;8.656;2023-03-09T07:40:57;9.00;99.90
24560;DHT22;12727;49.934;8.656;2023-03-09T07:43:22;9.10;99.90
24560;DHT22;12727;49.934;8.656;2023-03-09T07:45:48;9.10;99.90
24560;DHT22;12727;49.934;8.656;2023-03-09T07:48:13;9.30;99.90
24560;DHT22;12727;49.934;8.656;2023-03-09T07:50:41;9.30;99.90
24560;DHT22;12727;49.934;8.656;2023-03-09T07:53:07;9.40;99.90
24560;DHT22;12727;49.934;8.656;2023-03-09T07:55:32;9.50;99.90
24560;DHT22;12727;49.934;8.656;2023-03-09T07:58:00;9.50;99.90
24560;DHT22;12727;49.934;8.656;2023-03-09T08:00:27;9.60;99.90
24560;DHT22;12727;49.934;8.656;2023-03-09T08:02:54;9.60;99.90
24560;DHT22;12727;49.934;8.656;2023-03-09T08:05:20;9.60;99.90
24560;DHT22;12727;49.934;8.656;2023-03-09T08:07:46;9.60;99.90
24560;DHT22;12727;49.934;8.656;2023-03-09T08:10:13;9.50;99.90
24560;DHT22;12727;49.934;8.656;2023-03-09T08:12:41;9.50;99.90
24560;DHT22;12727;49.934;8.656;2023-03-09T08:15:07;9.60;99.90
24560;DHT22;12727;49.934;8.656;2023-03-09T08:17:32;9.70;99.90
24560;DHT22;12727;49.934;8.656;2023-03-09T08:19:59;9.70;99.90
24560;DHT22;12727;49.934;8.656;2023-03-09T08:22:26;9.80;99.90
24560;DHT22;12727;49.934;8.656;2023-03-09T08:24:52;9.80;99.90
24560;DHT22;12727;49.934;8.656;2023-03-09T08:27:18;9.80;99.90
24560;DHT22;12727;49.934;8.656;2023-03-09T08:29:43;9.80;99.90
24560;DHT22;12727;49.934;8.656;2023-03-09T08:32:09;9.80;99.90
24560;DHT22;12727;49.934;8.656;2023-03-09T08:34:35;9.80;99.90
24560;DHT22;12727;49.934;8.656;2023-03-09T08:37:01;9.80;99.90
24560;DHT22;12727;49.934;8.656;2023-03-09T08:39:27;9.90;99.90
24560;DHT22;12727;49.934;8.656;2023-03-09T08:41:52;9.90;99.90
24560;DHT22;12727;49.934;8.656;2023-03-09T08:44:18;9.90;99.90
24560;DHT22;12727;49.934;8.656;2023-03-09T08:46:44;9.90;99.90
24560;DHT22;12727;49.934;8.656;2023-03-09T08:49:09;9.90;99.90
24560;DHT22;12727;49.934;8.656;2023-03-09T08:51:35;9.90;99.90
24560;DHT22;12727;49.934;8.656;2023-03-09T08:54:00;9.90;99.90
24560;DHT22;12727;49.934;8.656;2023-03-09T08:56:26;9.90;99.90
24560;DHT22;12727;49.934;8.656;2023-03-09T08:58:52;9.90;99.90
24560;DHT22;12727;49.934;8.656;2023-03-09T09:01:17;9.90;99.90
24560;DHT22;12727;49.934;8.656;2023-03-09T09:03:43;9.90;99.90
24560;DHT22;12727;49.934;8.656;2023-03-09T09:06:11;9.90;99.90
24560;DHT22;12727;49.934;8.656;2023-03-09T09:08:37;9.90;99.90
24560;DHT22;12727;49.934;8.656;2023-03-09T09:11:14;9.80;99.90
24560;DHT22;12727;49.934;8.656;2023-03-09T09:13:40;10.00;99.90
24560;DHT22;12727;49.934;8.656;2023-03-09T09:16:07;10.00;99.90
24560;DHT22;12727;49.934;8.656;2023-03-09T09:18:34;10.00;99.90
24560;DHT22;12727;49.934;8.656;2023-03-09T09:21:06;10.10;99.90
24560;DHT22;12727;49.934;8.656;2023-03-09T09:23:34;10.00;99.90
24560;DHT22;12727;49.934;8.656;2023-03-09T09:26:00;10.10;99.90
24560;DHT22;12727;49.934;8.656;2023-03-09T09:28:26;10.20;99.90
24560;DHT22;12727;49.934;8.656;2023-03-09T09:31:02;10.20;99.90
24560;DHT22;12727;49.934;8.656;2023-03-09T09:33:30;10.40;99.90
24560;DHT22;12727;49.934;8.656;2023-03-09T09:36:03;10.40;99.90
24560;DHT22;12727;49.934;8.656;2023-03-09T09:38:30;10.50;99.90
24560;DHT22;12727;49.934;8.656;2023-03-09T09:40:59;10.40;99.90
24560;DHT22;12727;49.934;8.656;2023-03-09T09:43:26;10.50;99.90
24560;DHT22;12727;49.934;8.656;2023-03-09T09:45:54;10.50;99.90
24560;DHT22;12727;49.934;8.656;2023-03-09T09:48:21;10.60;99.90
24560;DHT22;12727;49.934;8.656;2023-03-09T09:56:21;10.90;99.90
24560;DHT22;12727;49.934;8.656;2023-03-09T09:59:03;10.90;99.90
24560;DHT22;12727;49.934;8.656;2023-03-09T10:01:45;10.90;99.90
24560;DHT22;12727;49.934;8.656;2023-03-09T10:04:21;10.90;99.90
24560;DHT22;12727;49.934;8.656;2023-03-09T10:06:48;11.00;99.90
24560;DHT22;12727;49.934;8.656;2023-03-09T10:09:27;11.00;99.90
24560;DHT22;12727;49.934;8.656;2023-03-09T10:11:57;11.00;99.90
24560;DHT22;12727;49.934;8.656;2023-03-09T10:14:30;11.10;99.90
24560;DHT22;12727;49.934;8.656;2023-03-09T10:19:43;11.20;99.90
24560;DHT22;12727;49.934;8.656;2023-03-09T10:24:40;11.20;99.90
24560;DHT22;12727;49.934;8.656;2023-03-09T10:27:18;11.40;99.90
24560;DHT22;12727;49.934;8.656;2023-03-09T10:32:23;11.40;99.90
24560;DHT22;12727;49.934;8.656;2023-03-09T10:34:57;11.40;99.90
24560;DHT22;12727;49.934;8.656;2023-03-09T10:37:29;11.40;99.90
24560;DHT22;12727;49.934;8.656;2023-03-09T10:39:57;11.30;99.90
24560;DHT22;12727;49.934;8.656;2023-03-09T10:42:26;11.30;99.90
24560;DHT22;12727;49.934;8.656;2023-03-09T10:47:20;11.30;99.90
24560;DHT22;12727;49.934;8.656;2023-03-09T10:50:07;11.30;99.90
24560;DHT22;12727;49.934;8.656;2023-03-09T10:52:33;11.30;99.90
24560;DHT22;12727;49.934;8.656;2023-03-09T10:54:58;11.20;99.90
24560;DHT22;12727;49.934;8.656;2023-03-09T10:57:27;11.10;99.90
24560;DHT22;12727;49.934;8.656;2023-03-09T11:00:13;11.00;99.90
24560;DHT22;12727;49.934;8.656;2023-03-09T11:02:39;11.20;99.90
24560;DHT22;12727;49.934;8.656;2023-03-09T11:05:18;11.30;99.90
24560;DHT22;12727;49.934;8.656;2023-03-09T11:07:52;11.30;99.90
24560;DHT22;12727;49.934;8.656;2023-03-09T11:12:52;11.10;99.90
24560;DHT22;12727;49.934;8.656;2023-03-09T11:15:26;11.10;99.90
24560;DHT22;12727;49.934;8.656;2023-03-09T11:17:54;11.10;99.90
24560;DHT22;12727;49.934;8.656;2023-03-09T11:20:27;11.10;99.90
24560;DHT22;12727;49.934;8.656;2023-03-09T11:26:22;11.10;99.90
24560;DHT22;12727;49.934;8.656;2023-03-09T11:28:57;11.10;99.90
24560;DHT22;12727;49.934;8.656;2023-03-09T11:31:28;11.10;99.90
24560;DHT22;12727;49.934;8.656;2023-03-09T11:33:57;11.10;99.90
24560;DHT22;12727;49.934;8.656;2023-03-09T11:36:47;11.00;99.90
24560;DHT22;12727;49.934;8.656;2023-03-09T11:39:28;11.00;99.90
24560;DHT22;12727;49.934;8.656;2023-03-09T11:41:55;11.10;99.90
24560;DHT22;12727;49.934;8.656;2023-03-09T11:46:52;11.40;99.90
24560;DHT22;12727;49.934;8.656;2023-03-09T11:49:21;11.70;99.90
24560;DHT22;12727;49.934;8.656;2023-03-09T11:51:50;11.90;99.90
24560;DHT22;12727;49.934;8.656;2023-03-09T11:54:31;12.10;99.90
24560;DHT22;12727;49.934;8.656;2023-03-09T11:57:08;12.50;99.90
24560;DHT22;12727;49.934;8.656;2023-03-09T11:59:45;12.70;99.90
24560;DHT22;12727;49.934;8.656;2023-03-09T12:04:50;13.10;99.90
24560;DHT22;12727;49.934;8.656;2023-03-09T12:07:28;13.10;99.90
24560;DHT22;12727;49.934;8.656;2023-03-09T12:10:02;13.30;99.90
24560;DHT22;12727;49.934;8.656;2023-03-09T12:12:46;13.40;99.90
24560;DHT22;12727;49.934;8.656;2023-03-09T12:18:00;13.30;99.90
24560;DHT22;12727;49.934;8.656;2023-03-09T12:20:36;13.20;99.90
24560;DHT22;12727;49.934;8.656;2023-03-09T12:23:03;12.90;99.90
24560;DHT22;12727;49.934;8.656;2023-03-09T12:25:29;12.70;99.90
24560;DHT22;12727;49.934;8.656;2023-03-09T12:27:58;12.70;99.90
24560;DHT22;12727;49.934;8.656;2023-03-09T12:30:31;12.60;99.90
24560;DHT22;12727;49.934;8.656;2023-03-09T12:33:01;12.70;99.90
24560;DHT22;12727;49.934;8.656;2023-03-09T12:40:35;12.50;99.90
24560;DHT22;12727;49.934;8.656;2023-03-09T12:45:39;12.50;99.90
24560;DHT22;12727;49.934;8.656;2023-03-09T13:03:44;13.00;99.90
24560;DHT22;12727;49.934;8.656;2023-03-09T13:06:31;13.20;99.90
24560;DHT22;12727;49.934;8.656;2023-03-09T13:16:56;13.40;99.90
24560;DHT22;12727;49.934;8.656;2023-03-09T13:27:26;13.50;99.90
24560;DHT22;12727;49.934;8.656;2023-03-09T13:29:56;13.60;99.90
24560;DHT22;12727;49.934;8.656;2023-03-09T13:32:35;13.80;99.90
24560;DHT22;12727;49.934;8.656;2023-03-09T13:35:03;13.80;99.90
24560;DHT22;12727;49.934;8.656;2023-03-09T13:37:39;13.80;99.90
24560;DHT22;12727;49.934;8.656;2023-03-09T13:40:21;13.90;99.90
24560;DHT22;12727;49.934;8.656;2023-03-09T13:42:48;14.00;99.90
24560;DHT22;12727;49.934;8.656;2023-03-09T13:45:23;14.10;99.90
24560;DHT22;12727;49.934;8.656;2023-03-09T13:48:06;14.10;99.90
24560;DHT22;12727;49.934;8.656;2023-03-09T13:50:43;14.00;99.90
24560;DHT22;12727;49.934;8.656;2023-03-09T13:55:56;14.00;99.90
24560;DHT22;12727;49.934;8.656;2023-03-09T13:58:23;14.10;99.90
24560;DHT22;12727;49.934;8.656;2023-03-09T14:03:17;13.80;99.90
24560;DHT22;12727;49.934;8.656;2023-03-09T14:05:56;13.70;99.90
24560;DHT22;12727;49.934;8.656;2023-03-09T14:08:23;13.60;99.90
24560;DHT22;12727;49.934;8.656;2023-03-09T14:10:49;13.40;99.90
24560;DHT22;12727;49.934;8.656;2023-03-09T14:13:21;13.20;99.90
24560;DHT22;12727;49.934;8.656;2023-03-09T14:16:00;12.90;99.90
24560;DHT22;12727;49.934;8.656;2023-03-09T14:18:41;12.70;99.90
24560;DHT22;12727;49.934;8.656;2023-03-09T14:23:44;13.00;99.90
24560;DHT22;12727;49.934;8.656;2023-03-09T14:26:10;13.20;99.90
24560;DHT22;12727;49.934;8.656;2023-03-09T14:28:38;13.20;99.90
24560;DHT22;12727;49.934;8.656;2023-03-09T14:31:19;13.30;99.90
24560;DHT22;12727;49.934;8.656;2023-03-09T14:34:00;13.40;99.90
24560;DHT22;12727;49.934;8.656;2023-03-09T14:36:29;13.40;99.90
24560;DHT22;12727;49.934;8.656;2023-03-09T14:39:00;13.50;99.90
24560;DHT22;12727;49.934;8.656;2023-03-09T14:41:29;13.50;99.90
24560;DHT22;12727;49.934;8.656;2023-03-09T14:43:55;13.50;99.90
24560;DHT22;12727;49.934;8.656;2023-03-09T14:46:23;13.60;99.90
24560;DHT22;12727;49.934;8.656;2023-03-09T14:48:57;13.60;99.90
24560;DHT22;12727;49.934;8.656;2023-03-09T14:51:31;13.50;99.90
24560;DHT22;12727;49.934;8.656;2023-03-09T14:54:14;13.50;99.90
24560;DHT22;12727;49.934;8.656;2023-03-09T14:56:43;13.50;99.90
24560;DHT22;12727;49.934;8.656;2023-03-09T14:59:16;13.60;99.90
24560;DHT22;12727;49.934;8.656;2023-03-09T15:01:46;13.70;99.90
24560;DHT22;12727;49.934;8.656;2023-03-09T15:04:15;13.70;99.90
24560;DHT22;12727;49.934;8.656;2023-03-09T15:06:41;13.70;99.90
24560;DHT22;12727;49.934;8.656;2023-03-09T15:09:08;13.70;99.90
24560;DHT22;12727;49.934;8.656;2023-03-09T15:11:33;13.70;99.90
24560;DHT22;12727;49.934;8.656;2023-03-09T15:14:01;13.60;99.90
24560;DHT22;12727;49.934;8.656;2023-03-09T15:16:29;13.60;99.90
24560;DHT22;12727;49.934;8.656;2023-03-09T15:18:55;13.70;99.90
24560;DHT22;12727;49.934;8.656;2023-03-09T15:21:21;13.80;99.90
24560;DHT22;12727;49.934;8.656;2023-03-09T15:23:46;13.80;99.90
24560;DHT22;12727;49.934;8.656;2023-03-09T15:26:12;13.70;99.90
24560;DHT22;12727;49.934;8.656;2023-03-09T15:28:38;13.70;99.90
24560;DHT22;12727;49.934;8.656;2023-03-09T15:31:08;13.70;99.90
24560;DHT22;12727;49.934;8.656;2023-03-09T15:33:34;13.60;99.90
24560;DHT22;12727;49.934;8.656;2023-03-09T15:36:00;13.50;99.90
24560;DHT22;12727;49.934;8.656;2023-03-09T15:38:25;13.50;99.90
24560;DHT22;12727;49.934;8.656;2023-03-09T15:40:51;13.50;99.90
24560;DHT22;12727;49.934;8.656;2023-03-09T15:43:16;13.50;99.90
24560;DHT22;12727;49.934;8.656;2023-03-09T15:45:43;13.60;99.90
24560;DHT22;12727;49.934;8.656;2023-03-09T15:48:09;13.60;99.90
24560;DHT22;12727;49.934;8.656;2023-03-09T15:50:35;13.70;99.90
24560;DHT22;12727;49.934;8.656;2023-03-09T15:53:05;13.70;99.90
24560;DHT22;12727;49.934;8.656;2023-03-09T15:55:30;13.60;99.90
24560;DHT22;12727;49.934;8.656;2023-03-09T15:57:57;13.60;99.90
24560;DHT22;12727;49.934;8.656;2023-03-09T16:00:24;13.60;99.90
24560;DHT22;12727;49.934;8.656;2023-03-09T16:02:50;13.50;99.90
24560;DHT22;12727;49.934;8.656;2023-03-09T16:05:17;13.40;99.90
24560;DHT22;12727;49.934;8.656;2023-03-09T16:07:43;13.40;99.90
24560;DHT22;12727;49.934;8.656;2023-03-09T16:10:09;13.40;99.90
24560;DHT22;12727;49.934;8.656;2023-03-09T16:12:35;13.50;99.90
24560;DHT22;12727;49.934;8.656;2023-03-09T16:15:00;13.50;99.90
24560;DHT22;12727;49.934;8.656;2023-03-09T16:17:26;13.50;99.90
24560;DHT22;12727;49.934;8.656;2023-03-09T16:19:51;13.40;99.90
24560;DHT22;12727;49.934;8.656;2023-03-09T16:22:17;13.30;99.90
24560;DHT22;12727;49.934;8.656;2023-03-09T16:24:42;13.40;99.90
24560;DHT22;12727;49.934;8.656;2023-03-09T16:27:08;13.50;99.90
24560;DHT22;12727;49.934;8.656;2023-03-09T16:29:34;13.40;99.90
24560;DHT22;12727;49.934;8.656;2023-03-09T16:31:59;13.30;99.90
24560;DHT22;12727;49.934;8.656;2023-03-09T16:34:30;13.30;99.90
24560;DHT22;12727;49.934;8.656;2023-03-09T16:36:55;13.20;99.90
24560;DHT22;12727;49.934;8.656;2023-03-09T16:39:21;13.10;99.90
24560;DHT22;12727;49.934;8.656;2023-03-09T16:41:50;13.10;99.90
24560;DHT22;12727;49.934;8.656;2023-03-09T16:44:17;13.00;99.90
24560;DHT22;12727;49.934;8.656;2023-03-09T16:46:48;13.00;99.90
24560;DHT22;12727;49.934;8.656;2023-03-09T16:49:15;12.90;99.90
24560;DHT22;12727;49.934;8.656;2023-03-09T16:51:41;12.80;99.90
24560;DHT22;12727;49.934;8.656;2023-03-09T16:54:07;12.70;99.90
24560;DHT22;12727;49.934;8.656;2023-03-09T16:56:32;12.60;99.90
24560;DHT22;12727;49.934;8.656;2023-03-09T16:58:58;12.60;99.90
24560;DHT22;12727;49.934;8.656;2023-03-09T17:01:23;12.60;99.90
24560;DHT22;12727;49.934;8.656;2023-03-09T17:03:50;12.60;99.90
24560;DHT22;12727;49.934;8.656;2023-03-09T17:06:20;12.60;99.90
24560;DHT22;12727;49.934;8.656;2023-03-09T17:08:49;12.50;99.90